sensor_id;sensor_type;location;lat;lon;timestamp;pressure;altitude;pressure_sealevel;temperature;humidity
63665;BME280;49820;33.966;73.390;2023-03-23T02:58:52;78666.97;;;5.08;100.00
63665;BME280;49820;33.966;73.390;2023-03-23T03:04:17;78679.34;;;5.29;100.00
63665;BME280;49820;33.966;73.390;2023-03-23T03:12:54;78665.19;;;5.57;100.00
63665;BME280;49820;33.966;73.390;2023-03-23T03:15:37;78678.44;;;5.57;100.00
63665;BME280;49820;33.966;73.390;2023-03-23T03:18:20;78679.75;;;5.58;100.00
63665;BME280;49820;33.966;73.390;2023-03-23T03:20:54;78668.47;;;5.60;100.00
63665;BME280;49820;33.966;73.390;2023-03-23T03:23:23;78673.34;;;6.06;100.00
63665;BME280;49820;33.966;73.390;2023-03-23T03:25:55;78683.50;;;6.96;100.00
63665;BME280;49820;33.966;73.390;2023-03-23T03:28:36;78689.16;;;7.19;100.00
63665;BME280;49820;33.966;73.390;2023-03-23T03:31:06;78702.34;;;7.27;100.00
63665;BME280;49820;33.966;73.390;2023-03-23T03:33:37;78695.47;;;7.42;100.00
63665;BME280;49820;33.966;73.390;2023-03-23T03:36:06;78694.72;;;7.48;100.00
63665;BME280;49820;33.966;73.390;2023-03-23T03:38:49;78705.28;;;7.52;100.00
63665;BME280;49820;33.966;73.390;2023-03-23T03:41:18;78715.59;;;7.74;100.00
63665;BME280;49820;33.966;73.390;2023-03-23T03:43:47;78724.25;;;7.73;100.00
63665;BME280;49820;33.966;73.390;2023-03-23T03:46:15;78721.78;;;7.60;100.00
63665;BME280;49820;33.966;73.390;2023-03-23T03:48:42;78706.03;;;7.46;100.00
63665;BME280;49820;33.966;73.390;2023-03-23T03:51:10;78710.97;;;7.71;100.00
63665;BME280;49820;33.966;73.390;2023-03-23T03:53:43;78725.56;;;7.74;100.00
63665;BME280;49820;33.966;73.390;2023-03-23T03:56:11;78732.69;;;7.85;100.00
63665;BME280;49820;33.966;73.390;2023-03-23T03:58:46;78715.56;;;7.76;100.00
63665;BME280;49820;33.966;73.390;2023-03-23T04:01:29;78742.69;;;7.85;100.00
63665;BME280;49820;33.966;73.390;2023-03-23T04:03:57;78727.47;;;7.79;100.00
63665;BME280;49820;33.966;73.390;2023-03-23T04:06:32;78728.69;;;7.41;100.00
63665;BME280;49820;33.966;73.390;2023-03-23T04:09:00;78739.66;;;7.17;100.00
63665;BME280;49820;33.966;73.390;2023-03-23T04:11:34;78751.63;;;7.16;100.00
63665;BME280;49820;33.966;73.390;2023-03-23T04:14:31;78742.66;;;6.90;100.00
63665;BME280;49820;33.966;73.390;2023-03-23T04:16:58;78737.53;;;6.76;100.00
63665;BME280;49820;33.966;73.390;2023-03-23T04:19:26;78749.09;;;7.06;100.00
63665;BME280;49820;33.966;73.390;2023-03-23T04:21:55;78744.16;;;6.75;100.00
63665;BME280;49820;33.966;73.390;2023-03-23T04:24:25;78744.06;;;6.85;100.00
63665;BME280;49820;33.966;73.390;2023-03-23T04:26:55;78737.69;;;6.64;100.00
63665;BME280;49820;33.966;73.390;2023-03-23T04:29:26;78743.00;;;6.64;100.00
63665;BME280;49820;33.966;73.390;2023-03-23T04:32:20;78734.94;;;6.72;100.00
63665;BME280;49820;33.966;73.390;2023-03-23T04:34:52;78747.94;;;6.93;100.00
63665;BME280;49820;33.966;73.390;2023-03-23T04:37:27;78741.28;;;6.96;100.00
63665;BME280;49820;33.966;73.390;2023-03-23T04:40:04;78756.78;;;7.28;100.00
63665;BME280;49820;33.966;73.390;2023-03-23T04:42:43;78751.91;;;7.45;100.00
63665;BME280;49820;33.966;73.390;2023-03-23T04:45:26;78751.69;;;7.61;100.00
63665;BME280;49820;33.966;73.390;2023-03-23T04:47:56;78742.97;;;7.64;100.00
63665;BME280;49820;33.966;73.390;2023-03-23T04:50:46;78742.88;;;7.71;100.00
63665;BME280;49820;33.966;73.390;2023-03-23T04:53:22;78746.03;;;7.83;100.00
63665;BME280;49820;33.966;73.390;2023-03-23T04:55:50;78754.13;;;7.75;100.00
63665;BME280;49820;33.966;73.390;2023-03-23T04:58:19;78748.44;;;7.54;100.00
63665;BME280;49820;33.966;73.390;2023-03-23T05:01:09;78741.88;;;7.49;100.00
63665;BME280;49820;33.966;73.390;2023-03-23T05:03:45;78756.25;;;7.64;100.00
63665;BME280;49820;33.966;73.390;2023-03-23T05:06:13;78753.59;;;7.64;100.00
63665;BME280;49820;33.966;73.390;2023-03-23T05:08:40;78761.66;;;8.03;100.00
63665;BME280;49820;33.966;73.390;2023-03-23T05:11:07;78765.06;;;7.98;100.00
63665;BME280;49820;33.966;73.390;2023-03-23T05:13:37;78763.09;;;7.96;100.00
63665;BME280;49820;33.966;73.390;2023-03-23T05:16:07;78772.38;;;7.99;100.00
63665;BME280;49820;33.966;73.390;2023-03-23T05:18:38;78768.81;;;8.13;100.00
63665;BME280;49820;33.966;73.390;2023-03-23T05:21:08;78774.13;;;8.15;100.00
63665;BME280;49820;33.966;73.390;2023-03-23T05:23:39;78781.41;;;8.17;100.00
63665;BME280;49820;33.966;73.390;2023-03-23T05:26:16;78776.38;;;7.98;100.00
63665;BME280;49820;33.966;73.390;2023-03-23T05:28:44;78773.81;;;7.92;100.00
63665;BME280;49820;33.966;73.390;2023-03-23T05:31:22;78789.28;;;8.25;100.00
63665;BME280;49820;33.966;73.390;2023-03-23T05:33:52;78792.50;;;8.29;100.00
63665;BME280;49820;33.966;73.390;2023-03-23T05:36:35;78788.72;;;8.18;100.00
63665;BME280;49820;33.966;73.390;2023-03-23T05:39:27;78782.28;;;8.03;100.00
63665;BME280;49820;33.966;73.390;2023-03-23T05:42:08;78780.19;;;8.10;100.00
63665;BME280;49820;33.966;73.390;2023-03-23T05:44:44;78800.53;;;8.27;100.00
63665;BME280;49820;33.966;73.390;2023-03-23T05:47:12;78779.22;;;8.31;100.00
63665;BME280;49820;33.966;73.390;2023-03-23T05:49:45;78794.34;;;8.41;100.00
63665;BME280;49820;33.966;73.390;2023-03-23T05:52:16;78791.16;;;8.34;100.00
63665;BME280;49820;33.966;73.390;2023-03-23T05:54:45;78780.91;;;8.49;100.00
63665;BME280;49820;33.966;73.390;2023-03-23T05:57:13;78778.31;;;8.45;100.00
63665;BME280;49820;33.966;73.390;2023-03-23T05:59:59;78788.84;;;8.90;100.00
63665;BME280;49820;33.966;73.390;2023-03-23T06:02:39;78793.41;;;8.96;100.00
63665;BME280;49820;33.966;73.390;2023-03-23T06:05:12;78783.25;;;9.04;100.00
63665;BME280;49820;33.966;73.390;2023-03-23T06:07:44;78772.59;;;9.04;100.00
63665;BME280;49820;33.966;73.390;2023-03-23T06:10:12;78770.84;;;9.26;100.00
63665;BME280;49820;33.966;73.390;2023-03-23T06:12:42;78778.16;;;9.62;100.00
63665;BME280;49820;33.966;73.390;2023-03-23T06:15:28;78750.19;;;9.59;100.00
63665;BME280;49820;33.966;73.390;2023-03-23T06:18:13;78750.09;;;9.96;100.00
63665;BME280;49820;33.966;73.390;2023-03-23T06:20:49;78737.44;;;10.25;100.00
63665;BME280;49820;33.966;73.390;2023-03-23T06:23:40;78746.94;;;10.47;100.00
63665;BME280;49820;33.966;73.390;2023-03-23T06:26:10;78766.38;;;10.73;100.00
63665;BME280;49820;33.966;73.390;2023-03-23T06:28:39;78769.06;;;10.70;100.00
63665;BME280;49820;33.966;73.390;2023-03-23T06:31:07;78742.50;;;10.38;100.00
63665;BME280;49820;33.966;73.390;2023-03-23T06:33:36;78767.31;;;10.88;100.00
63665;BME280;49820;33.966;73.390;2023-03-23T06:36:39;78744.34;;;10.99;100.00
63665;BME280;49820;33.966;73.390;2023-03-23T06:39:17;78762.81;;;11.09;100.00
63665;BME280;49820;33.966;73.390;2023-03-23T06:42:03;78762.59;;;11.17;100.00
63665;BME280;49820;33.966;73.390;2023-03-23T06:44:35;78750.28;;;12.03;100.00
63665;BME280;49820;33.966;73.390;2023-03-23T06:47:04;78755.44;;;13.21;100.00
63665;BME280;49820;33.966;73.390;2023-03-23T06:49:36;78740.25;;;14.32;100.00
63665;BME280;49820;33.966;73.390;2023-03-23T06:52:15;78737.66;;;14.67;100.00
63665;BME280;49820;33.966;73.390;2023-03-23T06:54:43;78728.59;;;14.58;92.29
63665;BME280;49820;33.966;73.390;2023-03-23T06:57:11;78739.91;;;14.23;92.12
63665;BME280;49820;33.966;73.390;2023-03-23T06:59:39;78731.34;;;13.60;96.83
63665;BME280;49820;33.966;73.390;2023-03-23T07:02:12;78736.44;;;13.87;89.08
63665;BME280;49820;33.966;73.390;2023-03-23T07:04:43;78728.16;;;13.35;96.61
63665;BME280;49820;33.966;73.390;2023-03-23T07:07:17;78734.94;;;13.32;92.88
63665;BME280;49820;33.966;73.390;2023-03-23T07:09:50;78731.34;;;13.79;92.49
63665;BME280;49820;33.966;73.390;2023-03-23T07:12:22;78750.41;;;13.31;85.76
63665;BME280;49820;33.966;73.390;2023-03-23T07:14:51;78758.38;;;12.69;87.73
63665;BME280;49820;33.966;73.390;2023-03-23T07:17:18;78755.72;;;12.90;88.98
63665;BME280;49820;33.966;73.390;2023-03-23T07:20:05;78737.44;;;13.38;92.82
63665;BME280;49820;33.966;73.390;2023-03-23T07:22:34;78731.38;;;14.35;84.35
63665;BME280;49820;33.966;73.390;2023-03-23T07:25:14;78736.69;;;12.98;82.63
63665;BME280;49820;33.966;73.390;2023-03-23T07:27:48;78752.28;;;12.02;82.80
63665;BME280;49820;33.966;73.390;2023-03-23T07:30:17;78748.66;;;11.89;93.52
63665;BME280;49820;33.966;73.390;2023-03-23T07:32:44;78743.69;;;11.50;93.11
63665;BME280;49820;33.966;73.390;2023-03-23T07:35:11;78731.47;;;11.05;90.12
63665;BME280;49820;33.966;73.390;2023-03-23T07:37:51;78744.31;;;11.26;95.11
63665;BME280;49820;33.966;73.390;2023-03-23T07:40:19;78736.41;;;10.95;91.63
63665;BME280;49820;33.966;73.390;2023-03-23T07:42:55;78727.69;;;10.96;94.35
63665;BME280;49820;33.966;73.390;2023-03-23T07:45:43;78742.63;;;11.14;100.00
63665;BME280;49820;33.966;73.390;2023-03-23T07:48:13;78729.78;;;11.43;100.00
63665;BME280;49820;33.966;73.390;2023-03-23T07:50:41;78715.13;;;11.42;95.97
63665;BME280;49820;33.966;73.390;2023-03-23T07:53:10;78721.06;;;11.45;94.53
63665;BME280;49820;33.966;73.390;2023-03-23T07:55:40;78731.72;;;11.72;94.45
63665;BME280;49820;33.966;73.390;2023-03-23T07:58:20;78719.44;;;11.31;91.69
63665;BME280;49820;33.966;73.390;2023-03-23T08:00:53;78713.53;;;11.52;93.96
63665;BME280;49820;33.966;73.390;2023-03-23T08:03:23;78719.16;;;11.41;97.08
63665;BME280;49820;33.966;73.390;2023-03-23T08:06:10;78709.16;;;11.65;100.00
63665;BME280;49820;33.966;73.390;2023-03-23T08:08:43;78706.66;;;11.59;98.38
63665;BME280;49820;33.966;73.390;2023-03-23T08:11:47;78702.41;;;11.43;89.07
63665;BME280;49820;33.966;73.390;2023-03-23T08:14:35;78717.16;;;11.42;90.71
63665;BME280;49820;33.966;73.390;2023-03-23T08:17:28;78685.19;;;11.36;92.30
63665;BME280;49820;33.966;73.390;2023-03-23T08:20:28;78709.28;;;12.08;94.42
63665;BME280;49820;33.966;73.390;2023-03-23T08:23:25;78698.50;;;12.10;89.94
63665;BME280;49820;33.966;73.390;2023-03-23T08:26:19;78695.88;;;11.85;91.67
63665;BME280;49820;33.966;73.390;2023-03-23T08:28:54;78709.38;;;12.27;92.27
63665;BME280;49820;33.966;73.390;2023-03-23T08:31:41;78694.91;;;11.72;91.42
63665;BME280;49820;33.966;73.390;2023-03-23T08:34:36;78681.75;;;11.64;93.08
63665;BME280;49820;33.966;73.390;2023-03-23T08:37:37;78703.38;;;11.31;90.29
63665;BME280;49820;33.966;73.390;2023-03-23T08:40:25;78698.94;;;10.97;96.56
63665;BME280;49820;33.966;73.390;2023-03-23T08:43:17;78671.66;;;10.41;95.63
63665;BME280;49820;33.966;73.390;2023-03-23T08:46:13;78681.81;;;10.34;97.28
63665;BME280;49820;33.966;73.390;2023-03-23T08:48:57;78677.75;;;10.37;98.59
63665;BME280;49820;33.966;73.390;2023-03-23T08:51:45;78672.41;;;10.37;96.52
63665;BME280;49820;33.966;73.390;2023-03-23T08:54:36;78689.19;;;10.60;99.21
63665;BME280;49820;33.966;73.390;2023-03-23T08:57:30;78678.44;;;10.62;98.65
63665;BME280;49820;33.966;73.390;2023-03-23T09:00:17;78692.78;;;10.78;99.97
63665;BME280;49820;33.966;73.390;2023-03-23T09:03:24;78688.78;;;10.50;97.85
63665;BME280;49820;33.966;73.390;2023-03-23T09:06:08;78672.75;;;10.23;92.72
63665;BME280;49820;33.966;73.390;2023-03-23T09:08:45;78689.06;;;10.09;94.62
63665;BME280;49820;33.966;73.390;2023-03-23T09:11:12;78678.69;;;9.97;100.00
63665;BME280;49820;33.966;73.390;2023-03-23T09:13:40;78668.28;;;9.84;98.38
63665;BME280;49820;33.966;73.390;2023-03-23T09:16:08;78683.53;;;10.17;97.99
63665;BME280;49820;33.966;73.390;2023-03-23T09:18:36;78682.41;;;10.08;84.68
63665;BME280;49820;33.966;73.390;2023-03-23T09:21:04;78680.19;;;10.18;86.01
63665;BME280;49820;33.966;73.390;2023-03-23T09:23:31;78666.16;;;10.20;93.98
63665;BME280;49820;33.966;73.390;2023-03-23T09:26:00;78679.34;;;10.26;85.40
63665;BME280;49820;33.966;73.390;2023-03-23T09:28:28;78653.56;;;10.14;98.08
63665;BME280;49820;33.966;73.390;2023-03-23T09:30:56;78669.88;;;10.31;100.00
63665;BME280;49820;33.966;73.390;2023-03-23T09:33:26;78658.00;;;10.26;100.00
63665;BME280;49820;33.966;73.390;2023-03-23T09:35:55;78650.59;;;10.28;100.00
63665;BME280;49820;33.966;73.390;2023-03-23T09:38:23;78664.50;;;10.60;98.53
63665;BME280;49820;33.966;73.390;2023-03-23T09:40:58;78668.16;;;10.73;100.00
63665;BME280;49820;33.966;73.390;2023-03-23T09:49:03;78652.25;;;10.42;97.34
63665;BME280;49820;33.966;73.390;2023-03-23T09:56:55;78659.72;;;10.38;76.51
63665;BME280;49820;33.966;73.390;2023-03-23T10:00:03;78655.72;;;10.08;84.03
63665;BME280;49820;33.966;73.390;2023-03-23T10:02:52;78662.63;;;9.99;83.05
63665;BME280;49820;33.966;73.390;2023-03-23T10:05:33;78655.69;;;10.10;87.58
63665;BME280;49820;33.966;73.390;2023-03-23T10:08:11;78658.88;;;10.16;93.35
63665;BME280;49820;33.966;73.390;2023-03-23T10:16:14;78651.13;;;10.33;89.85
63665;BME280;49820;33.966;73.390;2023-03-23T10:21:20;78645.59;;;10.41;81.12
63665;BME280;49820;33.966;73.390;2023-03-23T10:31:37;78638.03;;;10.50;74.91
63665;BME280;49820;33.966;73.390;2023-03-23T10:34:12;78623.50;;;10.69;80.82
63665;BME280;49820;33.966;73.390;2023-03-23T10:36:56;78628.56;;;10.80;75.30
63665;BME280;49820;33.966;73.390;2023-03-23T10:39:31;78635.28;;;10.79;77.32
63665;BME280;49820;33.966;73.390;2023-03-23T10:42:01;78621.69;;;10.87;76.40
63665;BME280;49820;33.966;73.390;2023-03-23T10:44:34;78611.88;;;11.04;74.13
63665;BME280;49820;33.966;73.390;2023-03-23T10:47:07;78615.69;;;11.11;77.27
63665;BME280;49820;33.966;73.390;2023-03-23T10:49:41;78596.28;;;10.88;77.59
63665;BME280;49820;33.966;73.390;2023-03-23T10:54:45;78622.34;;;11.12;77.97
63665;BME280;49820;33.966;73.390;2023-03-23T10:57:23;78614.34;;;11.12;81.57
63665;BME280;49820;33.966;73.390;2023-03-23T10:59:58;78624.00;;;11.48;75.22
63665;BME280;49820;33.966;73.390;2023-03-23T11:02:26;78616.34;;;12.05;75.53
63665;BME280;49820;33.966;73.390;2023-03-23T11:05:16;78609.31;;;12.78;73.67
63665;BME280;49820;33.966;73.390;2023-03-23T11:07:55;78588.59;;;12.77;71.69
63665;BME280;49820;33.966;73.390;2023-03-23T11:10:28;78596.69;;;13.35;71.83
63665;BME280;49820;33.966;73.390;2023-03-23T11:13:01;78615.38;;;13.18;70.64
63665;BME280;49820;33.966;73.390;2023-03-23T11:15:40;78604.19;;;13.12;77.01
63665;BME280;49820;33.966;73.390;2023-03-23T11:18:39;78607.25;;;13.20;74.71
63665;BME280;49820;33.966;73.390;2023-03-23T11:21:08;78607.41;;;12.75;75.92
63665;BME280;49820;33.966;73.390;2023-03-23T11:23:40;78603.47;;;13.13;75.58
63665;BME280;49820;33.966;73.390;2023-03-23T11:26:27;78605.63;;;13.67;74.12
63665;BME280;49820;33.966;73.390;2023-03-23T11:29:13;78597.25;;;13.94;71.69
63665;BME280;49820;33.966;73.390;2023-03-23T11:32:03;78586.78;;;14.04;57.91
63665;BME280;49820;33.966;73.390;2023-03-23T11:34:45;78593.88;;;12.79;58.41
63665;BME280;49820;33.966;73.390;2023-03-23T11:40:22;78570.31;;;12.21;81.38
63665;BME280;49820;33.966;73.390;2023-03-23T11:43:01;78590.56;;;12.57;77.43
63665;BME280;49820;33.966;73.390;2023-03-23T11:45:37;78579.56;;;12.86;75.60
63665;BME280;49820;33.966;73.390;2023-03-23T11:51:02;78571.81;;;12.57;76.27
63665;BME280;49820;33.966;73.390;2023-03-23T11:53:54;78573.78;;;12.38;78.53
63665;BME280;49820;33.966;73.390;2023-03-23T11:58:54;78570.19;;;12.04;80.56
63665;BME280;49820;33.966;73.390;2023-03-23T12:01:43;78600.94;;;12.05;81.69
63665;BME280;49820;33.966;73.390;2023-03-23T12:10:01;78611.63;;;10.89;92.27
63665;BME280;49820;33.966;73.390;2023-03-23T12:20:37;78623.16;;;10.30;97.59
63665;BME280;49820;33.966;73.390;2023-03-23T12:23:21;78596.63;;;9.97;99.04
63665;BME280;49820;33.966;73.390;2023-03-23T12:34:29;78619.72;;;9.80;93.29
63665;BME280;49820;33.966;73.390;2023-03-23T12:40:16;78614.75;;;9.64;100.00
63665;BME280;49820;33.966;73.390;2023-03-23T12:49:24;78608.31;;;9.24;100.00
63665;BME280;49820;33.966;73.390;2023-03-23T12:51:34;78605.66;;;9.24;100.00
63665;BME280;49820;33.966;73.390;2023-03-23T12:54:14;78601.59;;;8.96;100.00
63665;BME280;49820;33.966;73.390;2023-03-23T12:56:47;78608.19;;;8.99;100.00
63665;BME280;49820;33.966;73.390;2023-03-23T13:01:51;78610.03;;;8.73;100.00
63665;BME280;49820;33.966;73.390;2023-03-23T13:04:24;78615.00;;;8.59;100.00
63665;BME280;49820;33.966;73.390;2023-03-23T13:06:53;78596.91;;;8.28;100.00
63665;BME280;49820;33.966;73.390;2023-03-23T13:11:58;78605.19;;;8.14;100.00
63665;BME280;49820;33.966;73.390;2023-03-23T13:22:51;78597.81;;;7.80;100.00
63665;BME280;49820;33.966;73.390;2023-03-23T13:28:31;78601.78;;;7.42;100.00
63665;BME280;49820;33.966;73.390;2023-03-23T13:31:13;78607.50;;;7.17;100.00
63665;BME280;49820;33.966;73.390;2023-03-23T13:33:46;78601.22;;;6.92;100.00
63665;BME280;49820;33.966;73.390;2023-03-23T13:36:25;78588.97;;;6.68;100.00
63665;BME280;49820;33.966;73.390;2023-03-23T13:38:53;78573.88;;;6.57;100.00
63665;BME280;49820;33.966;73.390;2023-03-23T13:41:21;78575.41;;;6.41;100.00
63665;BME280;49820;33.966;73.390;2023-03-23T13:43:49;78603.78;;;6.53;100.00
63665;BME280;49820;33.966;73.390;2023-03-23T13:46:27;78601.91;;;6.43;100.00
63665;BME280;49820;33.966;73.390;2023-03-23T13:52:46;78609.53;;;6.19;100.00
63665;BME280;49820;33.966;73.390;2023-03-23T13:57:58;78609.06;;;6.04;100.00
63665;BME280;49820;33.966;73.390;2023-03-23T14:00:47;78583.47;;;5.78;100.00
63665;BME280;49820;33.966;73.390;2023-03-23T14:06:05;78594.16;;;5.72;100.00
63665;BME280;49820;33.966;73.390;2023-03-23T14:08:53;78610.66;;;5.76;100.00
63665;BME280;49820;33.966;73.390;2023-03-23T14:11:27;78575.13;;;5.53;100.00
63665;BME280;49820;33.966;73.390;2023-03-23T14:14:06;78614.59;;;5.80;100.00
63665;BME280;49820;33.966;73.390;2023-03-23T14:19:27;78613.22;;;5.85;100.00
63665;BME280;49820;33.966;73.390;2023-03-23T14:22:01;78609.31;;;5.78;100.00
63665;BME280;49820;33.966;73.390;2023-03-23T14:24:33;78598.28;;;5.59;100.00
63665;BME280;49820;33.966;73.390;2023-03-23T14:27:20;78602.88;;;5.62;100.00
63665;BME280;49820;33.966;73.390;2023-03-23T14:30:05;78606.97;;;5.51;100.00
63665;BME280;49820;33.966;73.390;2023-03-23T14:32:34;78591.84;;;5.40;100.00
63665;BME280;49820;33.966;73.390;2023-03-23T14:35:07;78579.28;;;5.36;100.00
63665;BME280;49820;33.966;73.390;2023-03-23T14:37:37;78604.94;;;5.56;100.00
63665;BME280;49820;33.966;73.390;2023-03-23T14:40:05;78566.84;;;5.22;100.00
63665;BME280;49820;33.966;73.390;2023-03-23T14:42:35;78594.41;;;5.48;100.00
63665;BME280;49820;33.966;73.390;2023-03-23T14:45:05;78584.56;;;5.38;100.00
63665;BME280;49820;33.966;73.390;2023-03-23T14:47:37;78607.66;;;5.50;100.00
63665;BME280;49820;33.966;73.390;2023-03-23T14:50:18;78608.25;;;5.54;100.00
63665;BME280;49820;33.966;73.390;2023-03-23T14:52:49;78593.06;;;5.51;100.00
63665;BME280;49820;33.966;73.390;2023-03-23T14:55:21;78610.16;;;5.60;100.00
63665;BME280;49820;33.966;73.390;2023-03-23T14:57:50;78593.81;;;5.41;100.00
63665;BME280;49820;33.966;73.390;2023-03-23T15:00:29;78613.63;;;5.48;100.00
63665;BME280;49820;33.966;73.390;2023-03-23T15:03:02;78612.38;;;5.41;100.00
63665;BME280;49820;33.966;73.390;2023-03-23T15:05:34;78611.06;;;5.40;100.00
63665;BME280;49820;33.966;73.390;2023-03-23T15:08:17;78616.94;;;5.45;100.00
63665;BME280;49820;33.966;73.390;2023-03-23T15:10:54;78622.25;;;5.47;100.00
63665;BME280;49820;33.966;73.390;2023-03-23T15:13:23;78601.22;;;5.30;100.00
63665;BME280;49820;33.966;73.390;2023-03-23T15:15:51;78607.75;;;5.40;100.00
63665;BME280;49820;33.966;73.390;2023-03-23T15:18:35;78614.38;;;5.38;100.00
63665;BME280;49820;33.966;73.390;2023-03-23T15:21:20;78618.25;;;5.50;100.00
63665;BME280;49820;33.966;73.390;2023-03-23T15:23:49;78599.22;;;5.29;100.00
63665;BME280;49820;33.966;73.390;2023-03-23T15:26:30;78627.59;;;5.41;100.00
63665;BME280;49820;33.966;73.390;2023-03-23T15:29:25;78615.16;;;5.25;100.00
63665;BME280;49820;33.966;73.390;2023-03-23T15:31:55;78642.91;;;5.32;100.00
63665;BME280;49820;33.966;73.390;2023-03-23T15:37:03;78627.16;;;5.16;100.00
63665;BME280;49820;33.966;73.390;2023-03-23T15:39:32;78650.28;;;5.23;100.00
63665;BME280;49820;33.966;73.390;2023-03-23T15:42:00;78629.88;;;5.10;100.00
63665;BME280;49820;33.966;73.390;2023-03-23T15:44:33;78633.88;;;5.05;100.00
63665;BME280;49820;33.966;73.390;2023-03-23T15:47:17;78655.72;;;5.07;100.00
63665;BME280;49820;33.966;73.390;2023-03-23T15:49:46;78643.28;;;4.89;100.00
63665;BME280;49820;33.966;73.390;2023-03-23T15:52:16;78647.91;;;4.87;100.00
63665;BME280;49820;33.966;73.390;2023-03-23T15:54:47;78639.94;;;4.93;100.00
63665;BME280;49820;33.966;73.390;2023-03-23T15:57:15;78648.38;;;5.14;100.00
63665;BME280;49820;33.966;73.390;2023-03-23T15:59:43;78656.72;;;5.43;100.00
63665;BME280;49820;33.966;73.390;2023-03-23T16:02:21;78668.63;;;5.44;100.00
63665;BME280;49820;33.966;73.390;2023-03-23T16:04:51;78665.34;;;5.43;100.00
63665;BME280;49820;33.966;73.390;2023-03-23T16:07:22;78686.47;;;5.49;100.00
63665;BME280;49820;33.966;73.390;2023-03-23T16:09:52;78665.41;;;5.33;100.00
63665;BME280;49820;33.966;73.390;2023-03-23T16:12:22;78677.19;;;5.48;100.00
63665;BME280;49820;33.966;73.390;2023-03-23T16:14:51;78685.66;;;5.63;100.00
63665;BME280;49820;33.966;73.390;2023-03-23T16:17:21;78683.59;;;5.71;100.00
63665;BME280;49820;33.966;73.390;2023-03-23T16:19:52;78670.88;;;5.88;100.00
63665;BME280;49820;33.966;73.390;2023-03-23T16:22:21;78677.91;;;6.10;100.00
63665;BME280;49820;33.966;73.390;2023-03-23T16:24:51;78673.84;;;6.19;100.00
63665;BME280;49820;33.966;73.390;2023-03-23T16:27:20;78680.78;;;6.49;100.00
63665;BME280;49820;33.966;73.390;2023-03-23T16:29:52;78684.09;;;6.49;100.00
63665;BME280;49820;33.966;73.390;2023-03-23T16:32:31;78661.16;;;6.28;100.00
63665;BME280;49820;33.966;73.390;2023-03-23T16:34:58;78672.91;;;6.43;100.00
63665;BME280;49820;33.966;73.390;2023-03-23T16:37:29;78684.03;;;6.56;100.00
63665;BME280;49820;33.966;73.390;2023-03-23T16:40:03;78685.38;;;6.55;100.00
63665;BME280;49820;33.966;73.390;2023-03-23T16:42:33;78680.19;;;6.44;100.00
63665;BME280;49820;33.966;73.390;2023-03-23T16:45:03;78671.69;;;6.34;100.00
63665;BME280;49820;33.966;73.390;2023-03-23T16:47:35;78634.22;;;6.05;100.00
63665;BME280;49820;33.966;73.390;2023-03-23T16:50:07;78676.19;;;6.45;100.00
63665;BME280;49820;33.966;73.390;2023-03-23T16:52:43;78653.19;;;6.28;100.00
63665;BME280;49820;33.966;73.390;2023-03-23T16:55:15;78651.88;;;6.25;100.00
63665;BME280;49820;33.966;73.390;2023-03-23T16:57:45;78639.44;;;6.13;100.00
63665;BME280;49820;33.966;73.390;2023-03-23T17:00:16;78635.59;;;6.02;100.00
63665;BME280;49820;33.966;73.390;2023-03-23T17:02:51;78638.13;;;6.10;100.00
63665;BME280;49820;33.966;73.390;2023-03-23T17:05:24;78650.75;;;6.09;100.00
63665;BME280;49820;33.966;73.390;2023-03-23T17:07:55;78625.88;;;5.80;100.00
63665;BME280;49820;33.966;73.390;2023-03-23T17:10:26;78624.66;;;5.69;100.00
63665;BME280;49820;33.966;73.390;2023-03-23T17:12:57;78630.03;;;5.63;100.00
63665;BME280;49820;33.966;73.390;2023-03-23T17:15:26;78634.72;;;5.56;100.00
63665;BME280;49820;33.966;73.390;2023-03-23T17:17:56;78645.34;;;5.56;100.00
63665;BME280;49820;33.966;73.390;2023-03-23T17:20:25;78616.50;;;5.24;100.00
63665;BME280;49820;33.966;73.390;2023-03-23T17:22:55;78647.56;;;5.31;100.00
63665;BME280;49820;33.966;73.390;2023-03-23T17:25:26;78630.53;;;5.10;100.00
63665;BME280;49820;33.966;73.390;2023-03-23T17:27:56;78616.81;;;4.87;100.00
63665;BME280;49820;33.966;73.390;2023-03-23T17:30:33;78656.31;;;5.12;100.00
63665;BME280;49820;33.966;73.390;2023-03-23T17:33:04;78648.41;;;5.10;100.00
63665;BME280;49820;33.966;73.390;2023-03-23T17:35:33;78618.78;;;4.91;100.00
63665;BME280;49820;33.966;73.390;2023-03-23T17:38:03;78633.28;;;4.96;100.00
63665;BME280;49820;33.966;73.390;2023-03-23T17:40:32;78628.66;;;4.96;100.00
63665;BME280;49820;33.966;73.390;2023-03-23T17:43:02;78644.41;;;5.13;100.00
63665;BME280;49820;33.966;73.390;2023-03-23T17:45:32;78635.19;;;5.08;100.00
63665;BME280;49820;33.966;73.390;2023-03-23T17:48:01;78625.97;;;5.03;100.00
63665;BME280;49820;33.966;73.390;2023-03-23T17:50:35;78614.16;;;4.91;100.00
63665;BME280;49820;33.966;73.390;2023-03-23T17:53:05;78589.81;;;4.75;100.00
63665;BME280;49820;33.966;73.390;2023-03-23T17:55:34;78604.22;;;4.92;100.00
63665;BME280;49820;33.966;73.390;2023-03-23T17:58:04;78597.63;;;4.87;100.00
63665;BME280;49820;33.966;73.390;2023-03-23T18:00:34;78585.13;;;4.79;100.00
63665;BME280;49820;33.966;73.390;2023-03-23T18:03:05;78590.34;;;4.89;100.00
63665;BME280;49820;33.966;73.390;2023-03-23T18:05:35;78588.44;;;4.80;100.00
63665;BME280;49820;33.966;73.390;2023-03-23T18:08:08;78587.81;;;4.73;100.00
63665;BME280;49820;33.966;73.390;2023-03-23T18:10:39;78582.59;;;4.65;100.00
63665;BME280;49820;33.966;73.390;2023-03-23T18:13:09;78599.66;;;4.82;100.00
63665;BME280;49820;33.966;73.390;2023-03-23T18:15:42;78600.34;;;4.79;100.00
63665;BME280;49820;33.966;73.390;2023-03-23T18:18:14;78538.47;;;4.45;100.00